Time;durP1;ratioP1;P1;durP2;ratioP2;P2;SDS_P1;SDS_P2;PMS_P1;PMS_P2;Temp;Humidity;BMP_temperature;BMP_pressure;BME280_temperature;BME280_humidity;BME280_pressure;Samples;Min_cycle;Max_cycle;Signal;HPM_P1;HPM_P2
2023/01/01 00:01:27;;;;;;;15.45;11.28;;;;;;;3.31;99.53;101243.37;1819567;79;21185;-78
2023/01/01 00:04:33;;;;;;;15.15;10.50;;;;;;;3.37;99.71;101232.61;1818411;79;21778;-79
2023/01/01 00:07:39;;;;;;;16.35;11.65;;;;;;;3.36;99.96;101220.06;1819471;79;21223;-79
2023/01/01 00:10:46;;;;;;;13.05;10.35;;;;;;;3.40;99.97;101216.17;1818342;79;21773;-78
2023/01/01 00:13:53;;;;;;;13.62;10.25;;;;;;;3.47;99.74;101207.50;1819036;79;21183;-78
2023/01/01 00:17:01;;;;;;;16.85;12.07;;;;;;;3.44;99.55;101194.21;1798648;79;21144;-78
2023/01/01 00:20:07;;;;;;;21.05;13.25;;;;;;;3.38;99.67;101197.33;1799268;79;21176;-78
2023/01/01 00:23:12;;;;;;;15.08;10.95;;;;;;;3.36;100.00;101197.08;1819578;79;21223;-78
2023/01/01 00:26:23;;;;;;;13.80;10.48;;;;;;;3.42;99.81;101193.44;1818240;79;21722;-78
2023/01/01 00:29:30;;;;;;;13.70;10.80;;;;;;;3.40;100.00;101194.54;1819256;79;21223;-78
2023/01/01 00:32:35;;;;;;;16.23;12.40;;;;;;;3.32;100.00;101191.02;1819675;79;21117;-79
2023/01/01 00:35:41;;;;;;;15.32;12.15;;;;;;;3.24;100.00;101206.41;1818473;79;21177;-78
2023/01/01 00:38:47;;;;;;;16.48;11.48;;;;;;;3.17;100.00;101197.50;1819143;79;21212;-79
2023/01/01 00:41:54;;;;;;;16.87;12.75;;;;;;;3.24;100.00;101201.00;1819771;79;21224;-78
2023/01/01 00:45:00;;;;;;;17.80;12.63;;;;;;;3.36;100.00;101200.64;1818705;79;21770;-78
2023/01/01 00:48:06;;;;;;;17.92;13.22;;;;;;;3.36;100.00;101202.48;1819657;79;21171;-78
2023/01/01 00:51:12;;;;;;;16.50;12.82;;;;;;;3.45;100.00;101193.72;1819394;79;21185;-78
2023/01/01 00:54:18;;;;;;;19.25;14.00;;;;;;;3.58;99.58;101185.11;1819201;79;21188;-79
2023/01/01 00:57:24;;;;;;;19.05;13.18;;;;;;;3.51;99.07;101180.61;1817094;79;21192;-78
2023/01/01 01:00:32;;;;;;;19.45;13.65;;;;;;;3.62;98.96;101193.36;1816699;79;21231;-78
2023/01/01 01:03:38;;;;;;;21.62;14.90;;;;;;;3.64;99.08;101187.86;1816704;79;21219;-77
2023/01/01 01:06:45;;;;;;;20.17;14.03;;;;;;;3.74;98.29;101172.19;1816966;79;21156;-78
2023/01/01 01:09:50;;;;;;;24.05;14.30;;;;;;;3.74;97.81;101174.90;1816709;79;21173;-78
2023/01/01 01:12:57;;;;;;;17.60;14.23;;;;;;;3.69;97.97;101183.84;1815171;79;21734;-77
2023/01/01 01:16:04;;;;;;;19.90;15.32;;;;;;;3.61;98.49;101189.42;1815235;79;21741;-79
2023/01/01 01:19:14;;;;;;;20.10;14.47;;;;;;;3.59;98.58;101192.25;1816611;79;21164;-78
2023/01/01 01:22:20;;;;;;;14.93;11.38;;;;;;;3.58;98.56;101190.03;1816950;79;21176;-78
2023/01/01 01:25:27;;;;;;;21.23;14.35;;;;;;;3.66;98.54;101192.17;1815699;79;21212;-78
2023/01/01 01:28:33;;;;;;;19.02;14.58;;;;;;;3.73;97.71;101192.61;1816661;79;21226;-78
2023/01/01 01:31:41;;;;;;;20.00;14.65;;;;;;;3.71;97.51;101193.19;1794632;79;21797;-78
2023/01/01 01:34:47;;;;;;;23.12;15.35;;;;;;;3.66;97.83;101190.81;1816436;79;21181;-78
2023/01/01 01:37:53;;;;;;;21.57;16.12;;;;;;;3.63;98.29;101185.64;1816530;79;21176;-78
2023/01/01 01:41:00;;;;;;;19.92;13.80;;;;;;;3.68;98.29;101183.47;1816422;79;21200;-79
2023/01/01 01:44:30;;;;;;;19.92;14.33;;;;;;;3.69;98.45;101185.20;1816694;79;21179;-78
2023/01/01 01:47:55;;;;;;;24.80;17.40;;;;;;;3.64;98.42;101178.39;1816780;79;21145;-79
2023/01/01 01:51:01;;;;;;;21.02;15.28;;;;;;;3.52;98.65;101174.70;1816755;79;21173;-77
2023/01/01 01:54:10;;;;;;;20.48;14.98;;;;;;;3.47;99.10;101163.36;1816710;79;21219;-77
2023/01/01 01:57:16;;;;;;;26.30;17.55;;;;;;;3.55;99.28;101140.69;1815978;79;21207;-77
2023/01/01 02:00:22;;;;;;;27.35;18.17;;;;;;;3.49;99.31;101126.27;1816722;79;21767;-78
2023/01/01 02:03:44;;;;;;;25.82;17.80;;;;;;;3.46;99.24;101134.09;1816494;79;21164;-78
2023/01/01 02:06:50;;;;;;;22.87;16.80;;;;;;;3.40;99.21;101133.69;1815164;79;21196;-78
2023/01/01 02:09:49;;;;;;;26.07;17.83;;;;;;;3.28;99.72;101115.13;1816748;79;21727;-78
2023/01/01 02:12:56;;;;;;;28.55;18.37;;;;;;;3.15;99.97;101108.86;1815160;79;21247;-78
2023/01/01 02:16:20;;;;;;;24.63;17.50;;;;;;;3.18;100.00;101098.70;1816354;79;21231;-78
2023/01/01 02:20:00;;;;;;;20.95;14.60;;;;;;;3.26;100.00;101106.28;1816639;79;21220;-78
2023/01/01 02:23:54;;;;;;;24.75;17.17;;;;;;;3.30;100.00;101108.66;1816585;79;21180;-78
2023/01/01 02:27:13;;;;;;;23.18;17.42;;;;;;;3.38;100.00;101123.45;1815301;79;21251;-79
2023/01/01 02:30:19;;;;;;;25.80;17.45;;;;;;;3.47;99.77;101103.85;1816792;79;21211;-78
2023/01/01 02:33:28;;;;;;;26.00;17.75;;;;;;;3.56;99.46;101095.07;1816470;79;21172;-79
2023/01/01 02:36:35;;;;;;;22.45;15.78;;;;;;;3.66;99.00;101089.35;1815397;79;21227;-78
2023/01/01 02:39:41;;;;;;;25.35;18.02;;;;;;;3.67;98.50;101088.86;1815659;79;21192;-78
2023/01/01 02:42:47;;;;;;;26.60;17.05;;;;;;;3.37;99.11;101093.33;1815739;79;21157;-79
2023/01/01 02:45:53;;;;;;;23.32;15.83;;;;;;;3.43;99.66;101095.58;1816168;79;21481;-79
2023/01/01 02:49:00;;;;;;;27.75;17.60;;;;;;;3.39;99.72;101098.13;1816417;79;21165;-79
2023/01/01 02:52:34;;;;;;;25.43;16.93;;;;;;;3.46;99.42;101099.42;1816779;79;21156;-79
2023/01/01 02:55:54;;;;;;;23.40;16.00;;;;;;;3.41;99.81;101093.48;1816447;79;21370;-79
2023/01/01 03:03:22;;;;;;;21.75;14.80;;;;;;;3.53;99.19;101080.44;1806429;79;21826;-78
2023/01/01 03:06:35;;;;;;;24.20;16.17;;;;;;;3.62;100.00;101078.38;1783482;80;21212;-79
2023/01/01 03:10:03;;;;;;;22.65;16.23;;;;;;;3.64;99.96;101069.67;1761945;81;21201;-78
2023/01/01 03:13:16;;;;;;;21.95;15.58;;;;;;;3.60;100.00;101060.05;1789385;80;21231;-78
2023/01/01 03:16:30;;;;;;;24.52;15.95;;;;;;;3.73;100.00;101060.87;1772540;81;21201;-78
2023/01/01 03:19:38;;;;;;;21.35;15.80;;;;;;;3.78;100.00;101052.42;1790012;80;21184;-78
2023/01/01 03:22:44;;;;;;;22.37;14.63;;;;;;;3.77;100.00;101040.73;1754595;81;21185;-78
2023/01/01 03:26:01;;;;;;;25.20;15.95;;;;;;;3.79;100.00;101047.37;1790149;80;21232;-78
2023/01/01 03:29:09;;;;;;;28.98;17.17;;;;;;;3.80;100.00;101053.16;1771749;80;21209;-78
2023/01/01 03:32:18;;;;;;;22.15;15.32;;;;;;;3.74;100.00;101053.13;1771699;80;21168;-78
2023/01/01 03:35:24;;;;;;;24.25;16.62;;;;;;;3.84;100.00;101056.88;1772959;81;21169;-78
2023/01/01 03:38:40;;;;;;;22.10;16.10;;;;;;;3.93;100.00;101059.38;1788513;80;21802;-77
2023/01/01 03:41:59;;;;;;;22.00;15.32;;;;;;;3.95;100.00;101075.49;1773006;81;21173;-78
2023/01/01 03:45:18;;;;;;;22.93;16.95;;;;;;;3.99;100.00;101055.34;1788402;80;21735;-78
2023/01/01 03:48:24;;;;;;;27.90;18.00;;;;;;;4.14;99.60;101056.91;1771474;81;21189;-78
2023/01/01 03:52:06;;;;;;;27.20;17.57;;;;;;;4.12;99.63;101071.53;1788600;80;21192;-78
2023/01/01 03:55:40;;;;;;;30.68;19.62;;;;;;;4.14;100.00;101069.55;1772833;81;21229;-79
2023/01/01 03:59:00;;;;;;;33.60;21.87;;;;;;;4.15;100.00;101069.46;1789234;80;21200;-79
2023/01/01 04:02:06;;;;;;;32.83;19.75;;;;;;;4.27;100.00;101059.52;1752045;82;21802;-79
2023/01/01 04:05:12;;;;;;;30.97;19.17;;;;;;;4.32;99.95;101060.89;1784611;80;21239;-79
2023/01/01 04:08:19;;;;;;;27.05;18.52;;;;;;;4.66;99.21;101065.53;1783409;80;21220;-79
2023/01/01 04:14:53;;;;;;;31.97;20.08;;;;;;;4.73;97.79;101050.04;1783410;80;21326;-79
2023/01/01 04:17:58;;;;;;;28.47;19.70;;;;;;;4.65;98.48;101055.69;1783905;80;21183;-79
2023/01/01 04:21:04;;;;;;;31.05;20.88;;;;;;;4.51;99.17;101056.76;1784728;80;21191;-80
2023/01/01 04:24:10;;;;;;;31.95;21.57;;;;;;;4.55;99.29;101054.19;1784556;80;21734;-79
2023/01/01 04:27:16;;;;;;;35.63;21.17;;;;;;;4.52;99.58;101067.50;1784431;80;21521;-80
2023/01/01 04:30:23;;;;;;;31.40;20.10;;;;;;;4.51;99.64;101048.62;1783071;80;21770;-80
2023/01/01 04:33:28;;;;;;;29.52;19.52;;;;;;;4.46;99.96;101033.23;1784679;80;21187;-80
2023/01/01 04:36:34;;;;;;;42.95;20.88;;;;;;;4.41;100.00;101051.69;1757220;81;21734;-80
2023/01/01 04:39:39;;;;;;;33.98;20.43;;;;;;;4.43;100.00;101059.23;1783677;80;21223;-79
2023/01/01 04:42:46;;;;;;;30.23;20.30;;;;;;;4.50;100.00;101067.23;1784777;80;21184;-80
2023/01/01 04:45:54;;;;;;;29.07;21.07;;;;;;;4.81;98.88;101060.29;1784884;80;21179;-80
2023/01/01 04:48:59;;;;;;;30.02;19.25;;;;;;;4.66;98.77;101062.83;1797623;79;21200;-79
2023/01/01 04:52:06;;;;;;;41.13;22.93;;;;;;;4.56;99.56;101060.87;1784806;80;21223;-78
2023/01/01 04:55:11;;;;;;;29.77;20.20;;;;;;;4.57;100.00;101059.88;1784651;80;21184;-78
2023/01/01 04:58:17;;;;;;;33.42;20.17;;;;;;;4.70;99.31;101073.80;1783985;80;21184;-78
2023/01/01 05:01:31;;;;;;;25.68;19.02;;;;;;;4.69;99.09;101077.01;1795681;79;21209;-78
2023/01/01 05:04:36;;;;;;;26.42;19.55;;;;;;;4.65;99.70;101078.23;1806463;79;21180;-77
2023/01/01 05:07:44;;;;;;;24.43;18.23;;;;;;;4.60;99.82;101066.39;1804726;79;21220;-78
2023/01/01 05:10:51;;;;;;;28.30;19.42;;;;;;;4.52;100.00;101051.24;1804808;79;21189;-78
2023/01/01 05:14:01;;;;;;;28.83;21.77;;;;;;;4.71;99.87;101035.77;1806447;79;21157;-78
2023/01/01 05:17:07;;;;;;;25.75;18.57;;;;;;;4.70;99.88;101032.66;1806264;79;21770;-77
2023/01/01 05:20:15;;;;;;;27.37;19.37;;;;;;;4.48;100.00;101040.77;1804972;79;21774;-78
2023/01/01 05:23:24;;;;;;;24.95;18.48;;;;;;;4.28;100.00;101048.59;1806230;79;21247;-78
2023/01/01 05:26:33;;;;;;;35.30;20.07;;;;;;;4.28;100.00;101043.17;1806611;79;22455;-78
2023/01/01 05:29:38;;;;;;;27.48;20.00;;;;;;;4.21;100.00;101055.44;1804967;79;21247;-78
2023/01/01 05:32:44;;;;;;;28.62;19.60;;;;;;;4.27;100.00;101054.97;1806407;79;21838;-78
2023/01/01 05:35:51;;;;;;;31.42;19.10;;;;;;;4.27;100.00;101056.31;1806369;79;21719;-78
2023/01/01 05:38:58;;;;;;;24.77;18.65;;;;;;;4.42;100.00;101056.98;1805058;79;21849;-78
2023/01/01 05:42:03;;;;;;;31.35;19.27;;;;;;;4.46;100.00;101042.71;1804750;79;21189;-79
2023/01/01 05:45:11;;;;;;;42.75;19.52;;;;;;;4.49;100.00;101050.12;1805952;79;21779;-78
2023/01/01 05:48:16;;;;;;;45.35;20.52;;;;;;;4.49;100.00;101066.38;1806238;79;21260;-78
2023/01/01 05:51:27;;;;;;;31.95;18.37;;;;;;;4.51;100.00;101067.10;1806379;79;21172;-78
2023/01/01 05:54:26;;;;;;;24.07;16.60;;;;;;;4.51;100.00;101078.44;1806455;79;21185;-79
2023/01/01 05:57:30;;;;;;;22.85;16.15;;;;;;;4.38;100.00;101081.74;1806374;79;21169;-79
2023/01/01 06:00:37;;;;;;;44.50;18.17;;;;;;;4.29;100.00;101071.98;1805755;79;21279;-80
2023/01/01 06:03:42;;;;;;;34.80;17.77;;;;;;;4.40;100.00;101064.86;1803648;79;21200;-79
2023/01/01 06:06:48;;;;;;;32.70;18.55;;;;;;;4.61;100.00;101055.05;1804965;79;21184;-80
2023/01/01 06:09:54;;;;;;;26.30;17.60;;;;;;;4.66;100.00;101054.23;1805072;79;21201;-79
2023/01/01 06:13:01;;;;;;;26.02;16.35;;;;;;;5.02;100.00;101058.56;1806243;79;21175;-80
2023/01/01 06:16:09;;;;;;;44.42;18.02;;;;;;;4.90;100.00;101065.48;1770770;80;21200;-80
2023/01/01 06:19:14;;;;;;;19.35;14.18;;;;;;;4.96;100.00;101075.34;1772318;81;21185;-80
2023/01/01 06:22:20;;;;;;;25.10;15.68;;;;;;;4.93;100.00;101082.84;1790018;80;21235;-80
2023/01/01 06:25:26;;;;;;;24.75;15.95;;;;;;;4.98;100.00;101081.98;1771634;81;21189;-80
2023/01/01 06:28:25;;;;;;;21.50;15.20;;;;;;;4.78;100.00;101077.64;1788725;80;21275;-79
2023/01/01 06:31:18;;;;;;;21.05;15.30;;;;;;;4.75;100.00;101077.02;1772123;81;21244;-79
2023/01/01 06:34:24;;;;;;;21.55;16.17;;;;;;;4.72;100.00;101079.48;1790372;80;21227;-79
2023/01/01 06:37:29;;;;;;;19.40;14.70;;;;;;;4.65;100.00;101081.43;1772855;81;21189;-79
2023/01/01 06:40:34;;;;;;;25.70;16.15;;;;;;;4.84;100.00;101070.38;1788657;80;21220;-79
2023/01/01 06:43:41;;;;;;;31.55;16.17;;;;;;;4.83;100.00;101078.14;1773000;81;21228;-79
2023/01/01 06:46:48;;;;;;;20.80;15.10;;;;;;;4.84;100.00;101071.73;1789181;80;21196;-79
2023/01/01 06:49:47;;;;;;;28.42;16.93;;;;;;;4.80;100.00;101071.63;1772469;81;21197;-79
2023/01/01 06:52:55;;;;;;;35.65;15.53;;;;;;;4.94;100.00;101075.97;1790206;80;21172;-79
2023/01/01 06:56:01;;;;;;;21.80;14.93;;;;;;;5.08;100.00;101077.55;1772887;81;21755;-79
2023/01/01 06:58:59;;;;;;;26.37;15.55;;;;;;;5.12;100.00;101070.89;1790052;80;21809;-79
2023/01/01 07:01:53;;;;;;;27.17;16.50;;;;;;;5.10;100.00;101060.68;1772129;80;21220;-79
2023/01/01 07:04:59;;;;;;;31.70;17.75;;;;;;;5.00;100.00;101055.62;1766008;81;21208;-79
2023/01/01 07:08:05;;;;;;;23.15;17.23;;;;;;;5.05;100.00;101061.05;1765891;81;21196;-78
2023/01/01 07:11:11;;;;;;;53.48;17.60;;;;;;;5.21;100.00;101057.09;1764370;81;21762;-79
2023/01/01 07:14:16;;;;;;;26.68;18.02;;;;;;;5.25;100.00;101059.44;1765887;81;21187;-80
2023/01/01 07:17:22;;;;;;;32.15;17.98;;;;;;;5.37;100.00;101059.81;1765079;81;21215;-79
2023/01/01 07:20:28;;;;;;;42.43;18.02;;;;;;;5.41;100.00;101057.72;1764913;81;21797;-79
2023/01/01 07:23:36;;;;;;;21.00;15.45;;;;;;;5.42;100.00;101066.72;1765757;81;21239;-79
2023/01/01 07:26:41;;;;;;;34.33;19.62;;;;;;;5.43;100.00;101077.94;1766039;81;21191;-79
2023/01/01 07:29:47;;;;;;;30.20;18.37;;;;;;;5.54;100.00;101079.27;1765497;81;21204;-79
2023/01/01 07:32:53;;;;;;;25.12;16.60;;;;;;;5.63;100.00;101088.02;1764724;81;21765;-79
2023/01/01 07:35:58;;;;;;;25.32;17.15;;;;;;;5.70;100.00;101081.11;1765796;81;21753;-79
2023/01/01 07:39:04;;;;;;;38.10;19.98;;;;;;;5.74;100.00;101078.52;1765318;81;21243;-79
2023/01/01 07:42:10;;;;;;;32.83;18.92;;;;;;;5.78;100.00;101084.03;1765935;81;21184;-79
2023/01/01 07:45:18;;;;;;;35.58;19.73;;;;;;;5.89;100.00;101085.39;1784520;80;21192;-79
2023/01/01 07:48:24;;;;;;;26.35;18.62;;;;;;;5.83;100.00;101085.91;1783524;80;21204;-80
2023/01/01 07:51:31;;;;;;;27.37;19.48;;;;;;;5.92;100.00;101080.70;1783343;80;21259;-79
2023/01/01 07:54:37;;;;;;;26.85;19.42;;;;;;;5.97;100.00;101074.39;1784683;80;21228;-79
2023/01/01 07:57:43;;;;;;;45.20;20.35;;;;;;;6.06;100.00;101074.48;1784793;80;21180;-79
2023/01/01 08:00:52;;;;;;;41.65;21.10;;;;;;;6.18;100.00;101071.25;1784000;80;21271;-80
2023/01/01 08:03:59;;;;;;;35.90;23.07;;;;;;;6.30;100.00;101072.05;1790960;79;21766;-79
2023/01/01 08:07:05;;;;;;;32.50;21.77;;;;;;;6.28;100.00;101058.61;1777067;80;21787;-79
2023/01/01 08:10:10;;;;;;;40.95;24.90;;;;;;;6.54;100.00;101060.94;1785703;80;21255;-79
2023/01/01 08:13:16;;;;;;;47.98;24.90;;;;;;;6.36;100.00;101060.19;1785908;80;21180;-79
2023/01/01 08:16:22;;;;;;;40.03;25.10;;;;;;;6.34;100.00;101066.23;1785738;80;21228;-79
2023/01/01 08:19:27;;;;;;;45.48;24.85;;;;;;;6.46;100.00;101062.12;1785717;80;21169;-78
2023/01/01 08:22:32;;;;;;;49.75;28.12;;;;;;;6.90;100.00;101052.80;1785857;80;21378;-79
2023/01/01 08:25:38;;;;;;;43.60;24.63;;;;;;;6.73;100.00;101052.94;1785847;80;21256;-78
2023/01/01 08:28:37;;;;;;;43.30;27.58;;;;;;;7.00;100.00;101058.30;1785812;80;21228;-78
2023/01/01 08:31:43;;;;;;;39.20;23.87;;;;;;;7.04;100.00;101061.12;1784951;80;21188;-77
2023/01/01 08:34:49;;;;;;;38.65;25.62;;;;;;;6.97;100.00;101058.59;1785958;80;21801;-78
2023/01/01 08:37:55;;;;;;;42.15;25.32;;;;;;;7.01;100.00;101057.30;1785905;80;21196;-78
2023/01/01 08:41:00;;;;;;;42.83;26.77;;;;;;;7.08;100.00;101056.63;1785604;80;21160;-77
2023/01/01 08:44:04;;;;;;;47.08;27.58;;;;;;;7.02;100.00;101048.16;1785799;80;21181;-78
2023/01/01 08:47:10;;;;;;;39.10;24.72;;;;;;;7.33;100.00;101047.63;1785824;80;21185;-77
2023/01/01 08:50:17;;;;;;;35.63;22.70;;;;;;;7.81;100.00;101042.82;1784640;80;21240;-78
2023/01/01 08:53:23;;;;;;;40.95;26.45;;;;;;;7.96;100.00;101051.47;1785992;80;21172;-78
2023/01/01 08:56:30;;;;;;;35.55;23.30;;;;;;;7.41;100.00;101051.39;1785970;80;21169;-78
2023/01/01 08:59:36;;;;;;;37.65;24.45;;;;;;;7.38;100.00;101048.94;1785922;80;21184;-78
2023/01/01 09:02:42;;;;;;;41.00;25.23;;;;;;;7.43;100.00;101041.72;1784604;80;21184;-80
2023/01/01 09:05:48;;;;;;;34.92;23.22;;;;;;;7.54;100.00;101044.36;1775723;80;21220;-80
2023/01/01 09:08:54;;;;;;;35.00;23.62;;;;;;;7.33;100.00;101037.61;1768395;81;21217;-80
2023/01/01 09:12:04;;;;;;;36.20;24.57;;;;;;;7.55;100.00;101039.27;1767589;81;21390;-80
2023/01/01 09:15:08;;;;;;;36.23;23.32;;;;;;;7.64;100.00;101031.62;1768639;81;21200;-80
2023/01/01 09:18:13;;;;;;;38.25;25.17;;;;;;;7.71;100.00;101025.61;1768123;81;21197;-80
2023/01/01 09:21:19;;;;;;;38.95;24.23;;;;;;;7.73;100.00;101022.27;1768232;81;21189;-80
2023/01/01 09:24:24;;;;;;;38.05;24.05;;;;;;;8.10;100.00;101015.63;1768356;81;21169;-80
2023/01/01 09:27:29;;;;;;;30.20;21.52;;;;;;;8.28;100.00;101011.66;1768283;81;21763;-79
2023/01/01 09:30:35;;;;;;;34.75;24.32;;;;;;;8.30;100.00;101010.52;1766809;81;21188;-80
2023/01/01 09:33:41;;;;;;;35.10;23.40;;;;;;;8.14;100.00;101005.67;1767854;81;21225;-80
2023/01/01 09:36:47;;;;;;;37.83;24.40;;;;;;;8.25;100.00;101005.16;1768316;81;21795;-80
2023/01/01 09:39:53;;;;;;;35.55;23.22;;;;;;;8.14;100.00;101007.03;1767281;81;21751;-77
2023/01/01 09:43:12;;;;;;;36.45;24.50;;;;;;;8.17;100.00;101009.95;1767307;81;21200;-77
2023/01/01 09:46:17;;;;;;;34.70;24.43;;;;;;;8.39;100.00;101007.47;1768303;81;21178;-79
2023/01/01 09:49:32;;;;;;;37.73;25.40;;;;;;;8.69;100.00;101007.77;1767258;80;21198;-79
2023/01/01 09:52:57;;;;;;;33.67;23.47;;;;;;;8.67;100.00;101002.97;1766781;81;21257;-79
2023/01/01 09:56:09;;;;;;;34.75;23.22;;;;;;;8.63;100.00;100994.72;1766836;81;21197;-79
2023/01/01 09:59:16;;;;;;;;;;;;;;;8.78;100.00;100994.61;1771068;81;21237;-79
2023/01/01 10:02:58;;;;;;;36.93;24.72;;;;;;;8.74;100.00;100990.95;1767932;81;20211;-79
2023/01/01 10:06:12;;;;;;;37.95;24.60;;;;;;;8.62;100.00;100980.23;1746175;81;21822;-78
2023/01/01 10:09:29;;;;;;;40.20;26.00;;;;;;;8.78;100.00;100964.60;1755194;82;21762;-79
2023/01/01 10:13:05;;;;;;;37.63;24.65;;;;;;;8.85;100.00;100957.55;1754627;82;21232;-78
2023/01/01 10:16:42;;;;;;;41.08;26.23;;;;;;;8.95;100.00;100953.42;1865489;77;21180;-79
2023/01/01 10:19:51;;;;;;;40.43;28.00;;;;;;;9.01;99.27;100966.96;1865521;77;21231;-79
2023/01/01 10:23:11;;;;;;;39.92;26.30;;;;;;;8.87;100.00;100980.08;1863786;77;21168;-78
2023/01/01 10:26:21;;;;;;;41.08;26.52;;;;;;;9.05;100.00;100990.22;1865514;77;21169;-78
2023/01/01 10:29:31;;;;;;;40.80;25.88;;;;;;;9.27;100.00;100984.38;1864839;76;21513;-79
2023/01/01 10:32:42;;;;;;;40.35;26.73;;;;;;;9.32;99.14;100984.77;1865171;77;21200;-79
2023/01/01 10:35:56;;;;;;;39.38;27.67;;;;;;;9.36;98.66;100990.29;1865463;77;21173;-79
2023/01/01 10:39:03;;;;;;;37.33;25.55;;;;;;;9.28;99.07;100984.72;1852088;77;21218;-79
2023/01/01 10:42:09;;;;;;;39.75;26.55;;;;;;;9.44;98.63;100982.17;1831118;78;21161;-79
2023/01/01 10:45:21;;;;;;;37.67;25.68;;;;;;;9.34;98.28;100963.63;1793191;80;21789;-79
2023/01/01 10:48:32;;;;;;;39.00;26.80;;;;;;;9.48;97.99;100969.08;1830966;78;21240;-79
2023/01/01 10:51:39;;;;;;;38.30;25.80;;;;;;;9.53;97.34;100960.43;1794555;80;21830;-79
2023/01/01 10:54:47;;;;;;;39.78;25.95;;;;;;;9.71;96.19;100961.31;1792962;80;21239;-78
2023/01/01 10:57:53;;;;;;;41.53;28.80;;;;;;;9.77;95.40;100949.75;1794345;80;21183;-79
2023/01/01 11:01:06;;;;;;;41.02;27.93;;;;;;;9.80;94.45;100954.92;1794637;80;21183;-79
2023/01/01 11:04:23;;;;;;;39.88;26.87;;;;;;;9.77;94.62;100956.58;1793326;80;21231;-79
2023/01/01 11:07:39;;;;;;;43.40;28.38;;;;;;;9.77;94.56;100943.44;1794445;80;21180;-79
2023/01/01 11:10:45;;;;;;;41.95;28.17;;;;;;;9.58;95.24;100944.44;1831394;78;21735;-79
2023/01/01 11:13:51;;;;;;;40.73;28.00;;;;;;;9.53;96.14;100935.84;1792886;80;21219;-79
2023/01/01 11:16:56;;;;;;;42.23;30.17;;;;;;;9.53;96.67;100939.44;1755433;80;21144;-79
2023/01/01 11:20:04;;;;;;;45.70;29.10;;;;;;;9.52;96.96;100939.60;1795871;80;21219;-79
2023/01/01 11:23:33;;;;;;;43.60;30.20;;;;;;;9.68;96.61;100944.71;1795523;80;21190;-79
2023/01/01 11:26:41;;;;;;;46.55;30.50;;;;;;;9.75;95.89;100938.64;1795790;80;21717;-79
2023/01/01 11:29:42;;;;;;;47.40;32.45;;;;;;;9.80;95.97;100935.80;1795336;80;21187;-79
2023/01/01 11:32:42;;;;;;;43.52;30.52;;;;;;;9.93;95.17;100917.13;1795914;80;21623;-79
2023/01/01 11:36:00;;;;;;;49.13;34.33;;;;;;;9.88;95.17;100920.85;1796168;80;21203;-79
2023/01/01 11:39:34;;;;;;;46.92;33.13;;;;;;;9.79;95.30;100922.30;1795338;78;21187;-78
2023/01/01 11:42:43;;;;;;;47.05;30.55;;;;;;;9.79;95.69;100917.69;1795834;80;21160;-78
2023/01/01 11:45:50;;;;;;;41.35;28.85;;;;;;;9.47;96.89;100916.34;1794716;80;21788;-78
2023/01/01 11:48:49;;;;;;;38.75;26.87;;;;;;;9.64;97.30;100905.56;1795544;80;21159;-78
2023/01/01 11:51:42;;;;;;;39.67;27.15;;;;;;;9.59;97.51;100905.18;1795678;80;21167;-77
2023/01/01 11:54:48;;;;;;;37.63;26.62;;;;;;;9.64;97.97;100900.96;1794281;80;21162;-80
2023/01/01 11:58:05;;;;;;;35.78;24.37;;;;;;;10.02;96.55;100904.88;1795729;80;21532;-79
2023/01/01 12:01:48;;;;;;;30.82;22.35;;;;;;;9.61;97.93;100899.92;1794721;80;21171;-78
2023/01/01 12:05:05;;;;;;;34.73;23.65;;;;;;;10.15;97.75;100894.40;1794675;80;21473;-76
2023/01/01 12:08:11;;;;;;;32.85;22.40;;;;;;;10.29;95.83;100891.63;1795885;80;21705;-80
2023/01/01 12:11:22;;;;;;;34.90;23.73;;;;;;;10.22;96.39;100900.96;1794289;78;21152;-79
2023/01/01 12:14:38;;;;;;;;;;;;;;;10.30;97.30;100905.13;1797687;80;21172;-78
2023/01/01 12:18:13;;;;;;;34.43;22.90;;;;;;;10.40;96.00;100893.61;1794294;80;20221;-77
2023/01/01 12:21:28;;;;;;;34.30;23.35;;;;;;;10.52;95.53;100895.54;1794326;80;21210;-80
2023/01/01 12:24:40;;;;;;;42.70;25.00;;;;;;;10.64;94.88;100885.20;1767375;81;21723;-78
2023/01/01 12:28:23;;;;;;;37.40;25.85;;;;;;;10.65;94.79;100871.34;1767156;81;21741;-78
2023/01/01 12:31:56;;;;;;;39.75;25.77;;;;;;;10.37;95.24;100869.30;1767650;81;21191;-78
2023/01/01 12:35:23;;;;;;;38.45;25.77;;;;;;;10.13;95.22;100874.58;1780366;80;21191;-80
2023/01/01 12:38:49;;;;;;;36.58;23.83;;;;;;;10.43;95.44;100875.48;1798881;79;21194;-78
2023/01/01 12:42:46;;;;;;;36.77;23.62;;;;;;;10.32;95.21;100881.75;1799191;80;21171;-80
2023/01/01 12:46:26;;;;;;;37.48;25.10;;;;;;;10.53;94.27;100876.73;1797403;80;21257;-80
2023/01/01 12:50:09;;;;;;;35.85;24.47;;;;;;;10.20;94.92;100880.59;1799282;80;21732;-79
2023/01/01 12:53:41;;;;;;;33.55;22.95;;;;;;;9.87;96.78;100888.20;1798929;80;21178;-78
2023/01/01 12:57:17;;;;;;;34.13;22.90;;;;;;;10.13;96.12;100891.84;1798823;80;21175;-78
2023/01/01 13:00:26;;;;;;;38.35;26.05;;;;;;;10.01;96.38;100892.23;1798893;80;21217;-78
2023/01/01 13:03:55;;;;;;;38.50;25.27;;;;;;;9.71;98.01;100891.66;1799275;80;21788;-78
2023/01/01 13:07:04;;;;;;;24.47;16.30;;;;;;;10.04;97.36;100891.94;1799261;79;21179;-78
2023/01/01 13:10:17;;;;;;;37.10;24.35;;;;;;;9.99;97.40;100896.00;1799755;80;21235;-78
2023/01/01 13:13:24;;;;;;;34.27;24.00;;;;;;;9.99;97.01;100896.51;1797403;80;21293;-78
2023/01/01 13:16:43;;;;;;;34.90;23.87;;;;;;;9.96;96.67;100894.94;1802833;78;21195;-78
2023/01/01 13:19:49;;;;;;;30.62;22.25;;;;;;;9.97;96.81;100904.87;1803991;79;21185;-78
2023/01/01 13:22:55;;;;;;;31.85;22.42;;;;;;;9.84;96.98;100903.56;1803728;79;22524;-78
2023/01/01 13:26:25;;;;;;;33.00;23.15;;;;;;;9.61;97.78;100897.20;1802645;79;21812;-78
2023/01/01 13:29:32;;;;;;;39.27;26.27;;;;;;;9.60;98.10;100900.09;1803956;79;21561;-78
2023/01/01 13:32:39;;;;;;;37.78;24.65;;;;;;;9.75;97.61;100890.84;1780457;79;21761;-78
2023/01/01 13:35:45;;;;;;;31.57;21.80;;;;;;;9.63;97.96;100902.49;1785964;78;21240;-78
2023/01/01 13:38:57;;;;;;;30.60;22.20;;;;;;;9.62;98.15;100915.80;1828833;77;21204;-78
2023/01/01 13:42:02;;;;;;;33.50;23.00;;;;;;;9.59;97.69;100914.73;1829153;78;22523;-79
2023/01/01 13:45:08;;;;;;;39.18;24.70;;;;;;;9.50;97.84;100922.49;1803266;79;21179;-78
2023/01/01 13:48:38;;;;;;;30.65;21.85;;;;;;;9.49;97.95;100918.91;1801295;79;21199;-78
2023/01/01 13:52:26;;;;;;;31.80;21.77;;;;;;;9.26;99.15;100922.58;1829195;78;21173;-78
2023/01/01 13:55:57;;;;;;;34.27;23.50;;;;;;;9.37;98.40;100912.83;1803248;79;21238;-79
2023/01/01 13:59:31;;;;;;;29.25;21.07;;;;;;;9.12;99.17;100908.94;1829160;78;21173;-78
2023/01/01 14:02:44;;;;;;;35.35;24.20;;;;;;;9.10;99.39;100921.03;1828227;78;21543;-79
2023/01/01 14:05:42;;;;;;;32.10;21.85;;;;;;;9.09;99.23;100917.95;1828440;78;21165;-79
2023/01/01 14:08:49;;;;;;;36.20;22.17;;;;;;;8.99;99.14;100917.12;1828908;78;21178;-79
2023/01/01 14:11:54;;;;;;;34.67;22.95;;;;;;;8.86;99.92;100916.98;1829098;78;21161;-79
2023/01/01 14:14:59;;;;;;;40.98;23.67;;;;;;;8.85;99.68;100917.14;1828775;78;21794;-79
2023/01/01 14:18:07;;;;;;;35.70;23.40;;;;;;;8.81;99.97;100911.63;1799769;79;21211;-79
2023/01/01 14:21:22;;;;;;;40.55;25.20;;;;;;;8.74;100.00;100911.86;1794458;80;21200;-79
2023/01/01 14:24:23;;;;;;;34.70;22.50;;;;;;;8.59;100.00;100904.67;1831040;78;21169;-79
2023/01/01 14:27:29;;;;;;;41.48;23.32;;;;;;;8.56;100.00;100900.87;1794451;80;21227;-79
2023/01/01 14:30:34;;;;;;;31.33;22.48;;;;;;;8.50;100.00;100902.33;1794427;80;21211;-79
2023/01/01 14:33:42;;;;;;;42.95;24.45;;;;;;;8.55;100.00;100893.70;1793201;80;21250;-78
2023/01/01 14:36:55;;;;;;;34.58;22.80;;;;;;;8.59;100.00;100904.67;1793084;80;21804;-78
2023/01/01 14:40:28;;;;;;;32.73;21.68;;;;;;;8.60;100.00;100899.56;1809074;78;21220;-78